Station: Gove Airport  

  Atmospheric Gas Attenuation - ITU Rec 676-11   ----------------- dB/100km -----------------
Date Time Temp RH % AH g/m3 Dew Point Wind Direction Speed kph Gust kph Barometer mB Rainfall Since 9am 24GHz 47GHz 76GHz 122GHz 134GHz 241GHz
03/09 17:40 26 76 18.5 21.4 17 20 1015.4 0 39.8 38.7 74.0 195.7 214.5 745.3
03/09 17:30 26.6 72 18.12 21.1 20 28 1015.3 0 38.9 37.8 71.7 189.5 207.2 719.7
03/09 17:20 26.5 72 18.02 21 19 26 1015.1 0 38.7 37.6 71.3 188.6 205.9 715.4
03/09 17:10 27.1 71 18.37 21.4 17 24 1015.1 0 39.4 38.0 72.3 191.3 209.5 727.7
03/09 17:00 27.1 69 17.86 20.9 19 24 1015.1 0 38.3 37.1 70.0 185.2 202.0 701.7
03/09 16:50 27.4 68 17.89 21 17 24 1015 0 38.4 37.0 69.9 184.8 201.6 700.4
03/09 16:40 27.6 67 17.83 20.9 20 28 1014.8 0 38.2 36.8 69.4 183.6 200.2 695.5
03/09 16:30 27.5 67 17.73 20.8 17 26 1014.9 0 38.0 36.6 69.1 182.7 199.0 691.4
03/09 16:20 27.1 68 17.6 20.7 17 26 1014.9 0 37.8 36.6 68.9 182.1 198.2 688.5
03/09 16:10 27.9 66 17.85 21 19 28 1014.9 0 38.2 36.7 69.3 183.1 199.7 693.8
03/09 16:00 27.9 67 18.12 21.2 17 24 1014.9 0 38.8 37.2 70.4 186.3 203.6 707.4
03/09 15:50 28 64 17.41 20.6 19 28 1014.9 0 37.3 35.9 67.2 177.8 193.1 671.0
03/09 15:40 28.2 65 17.87 21 19 26 1015 0 38.2 36.6 69.1 182.7 199.2 692.2
03/09 15:30 29 63 18.1 21.2 20 32 1015 0 38.6 36.7 69.4 183.4 200.4 696.4
03/09 15:20 28.8 62 17.62 20.8 17 24 1015.2 0 37.7 35.9 67.5 178.4 194.1 674.6
03/09 15:10 28.5 63 17.61 20.8 20 30 1015.3 0 37.7 36.0 67.7 179.0 194.8 676.7
03/09 15:00 28.8 61 17.33 20.5 19 24 1015.4 0 37.0 35.4 66.2 175.1 190.1 660.4
03/09 14:50 28.7 61 17.24 20.4 20 28 1015.4 0 36.9 35.3 65.9 174.3 189.1 656.9
03/09 14:40 28.7 60 16.96 20.2 20 24 1015.5 0 36.3 34.8 64.7 171.1 185.2 643.3
03/09 14:30 28.6 61 17.14 20.3 19 26 1015.6 0 36.7 35.2 65.6 173.4 187.9 653.0
03/09 14:20 29 59 16.95 20.2 17 24 1015.7 0 36.2 34.7 64.5 170.4 184.3 640.5
03/09 14:10 28.7 58 16.39 19.6 19 22 1015.9 0 35.1 33.9 62.4 164.8 177.3 616.1
03/09 14:00 28.6 61 17.14 20.3 19 28 1016 0 36.7 35.2 65.6 173.5 188.0 653.1
03/09 13:50 28.1 62 16.95 20.1 22 30 1016.2 0 36.3 35.1 65.2 172.4 186.6 648.2
03/09 13:40 28.7 61 17.24 20.4 20 24 1016.2 0 36.9 35.3 66.0 174.4 189.2 657.3
03/09 13:30 29.4 59 17.32 20.5 17 28 1016.3 0 37.0 35.2 65.7 173.8 188.6 655.3
03/09 13:20 29 62 17.81 21 19 24 1016.4 0 38.0 36.2 68.2 180.3 196.5 682.7
03/09 13:10 28.5 58 16.21 19.4 20 26 1016.6 0 34.7 33.7 61.8 163.3 175.4 609.4
03/09 13:00 28.6 57 16.02 19.2 22 30 1016.6 0 34.3 33.3 60.9 161.0 172.6 599.6
03/09 12:50 28.4 61 16.96 20.2 20 28 1016.7 0 36.3 35.0 65.1 172.0 186.0 646.4
03/09 12:40 28.8 60 17.05 20.3 20 30 1016.8 0 36.5 35.0 65.1 172.1 186.3 647.5
03/09 12:30 27.8 64 17.22 20.4 22 32 1017 0 36.9 35.7 66.7 176.3 191.2 664.4
03/09 12:20 27.5 65 17.2 20.3 22 28 1017.1 0 36.9 35.8 66.9 176.8 191.7 666.0
03/09 12:10 28.4 62 17.24 20.4 19 28 1017.3 0 36.9 35.5 66.3 175.2 190.1 660.3
03/09 12:00 27.9 64 17.31 20.5 17 24 1017.5 0 37.1 35.8 67.0 177.2 192.3 668.2
03/09 11:50 28 64 17.41 20.6 17 26 1017.8 0 37.3 36.0 67.4 178.2 193.5 672.4
03/09 11:40 27.6 63 16.76 19.9 19 30 1017.9 0 35.9 35.0 64.9 171.6 185.3 643.8
03/09 11:30 27.8 65 17.48 20.6 20 32 1018 0 37.4 36.2 67.9 179.5 195.1 677.7
03/09 11:20 27.8 64 17.22 20.4 22 28 1018.1 0 36.9 35.7 66.8 176.5 191.4 664.9
03/09 11:10 27.7 66 17.66 20.8 19 28 1018.2 0 37.8 36.6 68.8 181.9 197.9 687.7
03/09 11:00 28.2 61 16.77 20 20 28 1018.2 0 35.9 34.8 64.5 170.4 184.1 639.5
03/09 10:50 27.3 66 17.27 20.4 20 30 1018.4 0 37.0 36.1 67.4 178.3 193.4 671.8
03/09 10:40 28.1 65 17.78 20.9 20 28 1018.4 0 38.0 36.6 69.0 182.3 198.6 690.2
03/09 10:30 27.6 66 17.56 20.7 20 28 1018.5 0 37.6 36.4 68.5 181.0 196.8 683.7
03/09 10:20 27.7 66 17.66 20.8 17 24 1018.6 0 37.8 36.6 68.8 181.9 198.0 687.9
03/09 10:10 27.7 65 17.39 20.5 19 24 1018.6 0 37.3 36.1 67.6 178.8 194.1 674.4
03/09 10:00 28.1 63 17.23 20.4 15 26 1018.6 0 36.9 35.7 66.6 176.0 190.8 663.0
03/09 09:50 27.6 64 17.03 20.2 17 24 1018.6 0 36.5 35.5 66.1 174.8 189.2 657.4
03/09 09:40 27.7 65 17.39 20.5 17 20 1018.6 0 37.3 36.1 67.6 178.8 194.1 674.4
03/09 09:30 27.5 65 17.2 20.3 17 24 1018.6 0 36.9 35.9 67.0 177.0 191.9 666.7
03/09 09:20 27.4 67 17.63 20.7 15 24 1018.6 0 37.8 36.7 69.0 182.3 198.3 689.1
03/09 09:10 26.7 68 17.21 20.3 17 24 1018.5 0 37.0 36.2 67.7 179.0 194.1 674.1
03/09 09:00 26.8 70 17.82 20.9 15 19 1018.5 0 38.2 37.3 70.3 185.9 202.7 704.1
03/09 08:50 26.1 73 17.87 20.9 15 20 1018.5 0 38.4 37.7 71.2 188.2 205.3 713.1
03/09 08:40 26 75 18.26 21.2 13 19 1018.5 0 39.3 38.4 73.1 193.2 211.4 734.3
03/09 08:30 25.1 77 17.82 20.8 17 20 1018.4 0 38.4 38.0 71.9 190.1 207.3 719.9
03/09 08:20 25.1 77 17.82 20.8 13 19 1018.3 0 38.4 38.0 71.9 190.1 207.3 719.8
03/09 08:10 24.8 78 17.75 20.7 11 15 1018.2 0 38.3 38.0 71.9 190.0 207.0 719.0
03/09 08:00 24.7 80 18.11 21 9 11 1018.1 0 39.1 38.7 73.6 194.6 212.7 738.8
03/09 07:50 24 82 17.84 20.7 7 9 1017.9 0 38.6 38.5 73.0 193.0 210.6 731.2
03/09 07:40 23.1 86 17.78 20.6 7 9 1017.8 0 38.5 38.8 73.6 194.6 212.2 736.7
03/09 07:30 22.1 93 18.15 20.9 4 9 1017.8 0 39.4 40.0 76.4 201.9 220.9 766.7
03/09 07:20 21.2 97 17.97 20.7 0 0 1017.6 0 39.1 40.1 76.4 202.0 220.7 765.9
03/09 07:10 20.5 97 17.26 20 0 0 1017.5 0 37.7 39.0 73.6 194.6 211.4 733.6
03/09 07:00 19.9 97 16.66 19.4 0 0 1017.3 0 36.4 38.1 71.3 188.4 203.6 706.4
03/09 06:50 19.2 96 15.83 18.5 0 0 1017.2 0 34.7 36.9 68.0 179.6 192.6 667.8
03/09 06:40 18.9 96 15.55 18.2 0 0 1017.1 0 34.1 36.4 66.9 176.8 189.0 655.3
03/09 06:30 18.7 96 15.37 18 0 0 1016.9 0 33.8 36.2 66.2 174.9 186.7 647.3
03/09 06:20 18.6 96 15.28 17.9 0 0 1016.7 0 33.6 36.0 65.9 174.0 185.5 643.2
03/09 06:10 18.7 96 15.37 18 0 0 1016.7 0 33.8 36.2 66.2 174.9 186.7 647.2
03/09 06:00 18.5 96 15.19 17.9 0 0 1016.6 0 33.4 35.9 65.6 173.1 184.4 639.2
03/09 05:50 18.8 96 15.46 18.1 0 0 1016.4 0 34.0 36.3 66.6 175.8 187.8 651.0
03/09 05:40 18.9 96 15.55 18.2 4 6 1016.3 0 34.1 36.4 66.9 176.6 188.9 654.9
03/09 05:30 18.9 96 15.55 18.2 4 7 1016.3 0 34.1 36.4 66.9 176.6 188.9 654.9
03/09 05:20 19 97 15.81 18.5 0 0 1016.2 0 34.7 36.9 68.0 179.7 192.6 668.0
03/09 05:10 19.3 97 16.09 18.8 6 6 1016.2 0 35.3 37.3 69.1 182.5 196.2 680.4
03/09 05:00 18.9 96 15.55 18.2 6 7 1016.1 0 34.2 36.4 66.9 176.6 188.8 654.8
03/09 04:50 19 97 15.81 18.5 6 6 1016 0 34.7 36.8 68.0 179.6 192.6 667.9
03/09 04:40 18.6 96 15.28 17.9 4 6 1016 0 33.6 36.0 65.9 173.9 185.4 642.9
03/09 04:30 18.8 96 15.46 18.1 6 7 1015.9 0 34.0 36.3 66.5 175.7 187.7 650.8
03/09 04:20 18.8 96 15.46 18.1 7 7 1015.9 0 34.0 36.3 66.5 175.7 187.7 650.8
03/09 04:10 18.8 96 15.46 18.1 0 0 1015.8 0 34.0 36.3 66.5 175.7 187.7 650.7
03/09 04:00 18.9 96 15.55 18.2 0 0 1015.7 0 34.2 36.4 66.8 176.6 188.8 654.6
03/09 03:50 19.1 96 15.74 18.4 0 0 1015.7 0 34.5 36.7 67.6 178.5 191.2 663.1
03/09 03:40 19.2 96 15.83 18.5 0 0 1015.6 0 34.7 36.8 67.9 179.3 192.3 667.0
03/09 03:30 19.2 96 15.83 18.5 0 0 1015.6 0 34.7 36.8 67.9 179.3 192.3 667.0
03/09 03:20 19.1 96 15.74 18.4 0 0 1015.6 0 34.5 36.7 67.6 178.5 191.2 663.1
03/09 03:10 19 96 15.64 18.3 0 0 1015.7 0 34.3 36.5 67.2 177.4 189.9 658.6
03/09 03:00 19.2 96 15.83 18.5 0 0 1015.8 0 34.7 36.8 67.9 179.4 192.4 667.1
03/09 02:50 19.2 95 15.66 18.4 0 0 1015.8 0 34.4 36.5 67.1 177.2 189.7 658.0
03/09 02:40 19.2 95 15.66 18.4 0 0 1015.8 0 34.4 36.5 67.1 177.2 189.7 658.0
03/09 02:30 19.5 96 16.11 18.8 0 0 1015.9 0 35.3 37.2 69.0 182.2 195.9 679.6
03/09 02:20 19.4 95 15.85 18.6 0 0 1016 0 34.8 36.8 67.8 179.2 192.2 666.5
03/09 02:10 19.2 95 15.66 18.4 0 0 1016.1 0 34.4 36.5 67.1 177.3 189.8 658.1
03/09 02:00 19.5 95 15.94 18.7 0 0 1016.1 0 34.9 36.9 68.2 180.1 193.3 670.5
03/09 01:50 19.5 95 15.94 18.7 0 0 1016.3 0 34.9 36.9 68.2 180.1 193.4 670.6
03/09 01:40 19.6 95 16.04 18.8 0 0 1016.4 0 35.1 37.0 68.6 181.2 194.7 675.1
03/09 01:30 19.8 95 16.23 19 0 0 1016.4 0 35.5 37.3 69.3 183.1 197.1 683.6
03/09 01:20 19.7 95 16.13 18.9 0 0 1016.5 0 35.3 37.2 68.9 182.1 195.8 679.1
03/09 01:10 20 95 16.42 19.2 0 0 1016.5 0 35.9 37.6 70.0 185.0 199.5 692.1

Last Refresh: 03-Sep-2026 17:45:07

Bureau of Meteorology